sensor_id;sensor_type;location;lat;lon;timestamp;temperature;humidity
42663;DHT22;44330;51.360;6.686;2022-07-22T00:00:12;16.70;88.10
42663;DHT22;44330;51.360;6.686;2022-07-22T00:02:38;16.70;88.10
42663;DHT22;44330;51.360;6.686;2022-07-22T00:05:04;16.70;88.00
42663;DHT22;44330;51.360;6.686;2022-07-22T00:07:30;16.70;87.80
42663;DHT22;44330;51.360;6.686;2022-07-22T00:09:56;16.60;87.70
42663;DHT22;44330;51.360;6.686;2022-07-22T00:12:21;16.70;88.10
42663;DHT22;44330;51.360;6.686;2022-07-22T00:14:47;16.60;88.30
42663;DHT22;44330;51.360;6.686;2022-07-22T00:17:13;16.60;89.00
42663;DHT22;44330;51.360;6.686;2022-07-22T00:19:38;16.50;89.10
42663;DHT22;44330;51.360;6.686;2022-07-22T00:22:04;16.50;89.30
42663;DHT22;44330;51.360;6.686;2022-07-22T00:24:29;16.50;89.00
42663;DHT22;44330;51.360;6.686;2022-07-22T00:26:55;16.50;89.00
42663;DHT22;44330;51.360;6.686;2022-07-22T00:29:21;16.50;88.90
42663;DHT22;44330;51.360;6.686;2022-07-22T00:31:46;16.50;88.80
42663;DHT22;44330;51.360;6.686;2022-07-22T00:34:12;16.50;88.60
42663;DHT22;44330;51.360;6.686;2022-07-22T00:36:37;16.50;89.00
42663;DHT22;44330;51.360;6.686;2022-07-22T00:39:03;16.50;89.30
42663;DHT22;44330;51.360;6.686;2022-07-22T00:41:30;16.60;87.90
42663;DHT22;44330;51.360;6.686;2022-07-22T00:44:07;16.60;87.80
42663;DHT22;44330;51.360;6.686;2022-07-22T00:46:34;16.60;87.90
42663;DHT22;44330;51.360;6.686;2022-07-22T00:49:00;16.60;88.10
42663;DHT22;44330;51.360;6.686;2022-07-22T00:51:27;16.60;88.00
42663;DHT22;44330;51.360;6.686;2022-07-22T00:53:54;16.60;87.90
42663;DHT22;44330;51.360;6.686;2022-07-22T00:56:20;16.60;87.90
42663;DHT22;44330;51.360;6.686;2022-07-22T00:58:48;16.60;88.10
42663;DHT22;44330;51.360;6.686;2022-07-22T01:01:15;16.60;88.10
42663;DHT22;44330;51.360;6.686;2022-07-22T01:03:41;16.60;88.80
42663;DHT22;44330;51.360;6.686;2022-07-22T01:06:07;16.60;88.40
42663;DHT22;44330;51.360;6.686;2022-07-22T01:08:33;16.60;88.60
42663;DHT22;44330;51.360;6.686;2022-07-22T01:11:09;16.70;88.30
42663;DHT22;44330;51.360;6.686;2022-07-22T01:13:35;16.70;88.00
42663;DHT22;44330;51.360;6.686;2022-07-22T01:16:01;16.70;88.20
42663;DHT22;44330;51.360;6.686;2022-07-22T01:18:26;16.60;88.30
42663;DHT22;44330;51.360;6.686;2022-07-22T01:20:52;16.60;88.70
42663;DHT22;44330;51.360;6.686;2022-07-22T01:23:18;16.70;88.90
42663;DHT22;44330;51.360;6.686;2022-07-22T01:25:44;16.60;89.00
42663;DHT22;44330;51.360;6.686;2022-07-22T01:28:09;16.60;89.10
42663;DHT22;44330;51.360;6.686;2022-07-22T01:30:35;16.60;89.20
42663;DHT22;44330;51.360;6.686;2022-07-22T01:33:00;16.60;89.30
42663;DHT22;44330;51.360;6.686;2022-07-22T01:35:26;16.60;89.40
42663;DHT22;44330;51.360;6.686;2022-07-22T01:37:51;16.60;89.40
42663;DHT22;44330;51.360;6.686;2022-07-22T01:40:17;16.50;89.30
42663;DHT22;44330;51.360;6.686;2022-07-22T01:42:42;16.50;89.30
42663;DHT22;44330;51.360;6.686;2022-07-22T01:45:08;16.50;89.40
42663;DHT22;44330;51.360;6.686;2022-07-22T01:47:34;16.50;89.30
42663;DHT22;44330;51.360;6.686;2022-07-22T01:50:00;16.50;89.60
42663;DHT22;44330;51.360;6.686;2022-07-22T01:52:25;16.50;89.20
42663;DHT22;44330;51.360;6.686;2022-07-22T01:54:51;16.50;89.20
42663;DHT22;44330;51.360;6.686;2022-07-22T01:57:16;16.50;90.00
42663;DHT22;44330;51.360;6.686;2022-07-22T01:59:42;16.50;89.80
42663;DHT22;44330;51.360;6.686;2022-07-22T02:02:07;16.50;89.90
42663;DHT22;44330;51.360;6.686;2022-07-22T02:04:33;16.40;90.00
42663;DHT22;44330;51.360;6.686;2022-07-22T02:06:58;16.50;90.10
42663;DHT22;44330;51.360;6.686;2022-07-22T02:09:24;16.50;89.90
42663;DHT22;44330;51.360;6.686;2022-07-22T02:11:49;16.50;89.80
42663;DHT22;44330;51.360;6.686;2022-07-22T02:14:15;16.40;89.40
42663;DHT22;44330;51.360;6.686;2022-07-22T02:16:41;16.50;89.50
42663;DHT22;44330;51.360;6.686;2022-07-22T02:19:06;16.50;89.50
42663;DHT22;44330;51.360;6.686;2022-07-22T02:21:32;16.40;89.20
42663;DHT22;44330;51.360;6.686;2022-07-22T02:23:58;16.40;89.30
42663;DHT22;44330;51.360;6.686;2022-07-22T02:26:24;16.40;89.30
42663;DHT22;44330;51.360;6.686;2022-07-22T02:28:49;16.40;89.30
42663;DHT22;44330;51.360;6.686;2022-07-22T02:31:15;16.50;88.90
42663;DHT22;44330;51.360;6.686;2022-07-22T02:33:40;16.40;88.70
42663;DHT22;44330;51.360;6.686;2022-07-22T02:36:06;16.40;88.50
42663;DHT22;44330;51.360;6.686;2022-07-22T02:38:32;16.40;88.50
42663;DHT22;44330;51.360;6.686;2022-07-22T02:40:57;16.40;88.20
42663;DHT22;44330;51.360;6.686;2022-07-22T02:43:23;16.40;87.80
42663;DHT22;44330;51.360;6.686;2022-07-22T02:45:48;16.40;87.70
42663;DHT22;44330;51.360;6.686;2022-07-22T02:48:14;16.30;87.80
42663;DHT22;44330;51.360;6.686;2022-07-22T02:50:45;16.30;88.10
42663;DHT22;44330;51.360;6.686;2022-07-22T02:53:11;16.30;88.20
42663;DHT22;44330;51.360;6.686;2022-07-22T02:55:36;16.30;88.40
42663;DHT22;44330;51.360;6.686;2022-07-22T02:58:08;16.30;88.40
42663;DHT22;44330;51.360;6.686;2022-07-22T03:00:35;16.20;88.30
42663;DHT22;44330;51.360;6.686;2022-07-22T03:03:01;16.20;88.60
42663;DHT22;44330;51.360;6.686;2022-07-22T03:05:26;16.20;88.80
42663;DHT22;44330;51.360;6.686;2022-07-22T03:07:52;16.20;88.60
42663;DHT22;44330;51.360;6.686;2022-07-22T03:10:17;16.20;88.60
42663;DHT22;44330;51.360;6.686;2022-07-22T03:12:43;16.20;88.60
42663;DHT22;44330;51.360;6.686;2022-07-22T03:15:08;16.20;88.60
42663;DHT22;44330;51.360;6.686;2022-07-22T03:17:35;16.20;88.00
42663;DHT22;44330;51.360;6.686;2022-07-22T03:20:09;16.20;87.80
42663;DHT22;44330;51.360;6.686;2022-07-22T03:22:35;16.20;87.90
42663;DHT22;44330;51.360;6.686;2022-07-22T03:25:00;16.20;87.90
42663;DHT22;44330;51.360;6.686;2022-07-22T03:27:26;16.20;87.60
42663;DHT22;44330;51.360;6.686;2022-07-22T03:29:52;16.20;87.50
42663;DHT22;44330;51.360;6.686;2022-07-22T03:32:17;16.20;87.50
42663;DHT22;44330;51.360;6.686;2022-07-22T03:34:43;16.20;87.10
42663;DHT22;44330;51.360;6.686;2022-07-22T03:37:09;16.20;86.50
42663;DHT22;44330;51.360;6.686;2022-07-22T03:39:35;16.20;86.70
42663;DHT22;44330;51.360;6.686;2022-07-22T03:42:00;16.20;86.90
42663;DHT22;44330;51.360;6.686;2022-07-22T03:44:26;16.20;87.00
42663;DHT22;44330;51.360;6.686;2022-07-22T03:46:52;16.30;87.20
42663;DHT22;44330;51.360;6.686;2022-07-22T03:49:17;16.30;87.40
42663;DHT22;44330;51.360;6.686;2022-07-22T03:51:43;16.30;87.40
42663;DHT22;44330;51.360;6.686;2022-07-22T03:54:09;16.30;87.20
42663;DHT22;44330;51.360;6.686;2022-07-22T03:56:34;16.30;87.10
42663;DHT22;44330;51.360;6.686;2022-07-22T03:59:00;16.30;87.40
42663;DHT22;44330;51.360;6.686;2022-07-22T04:01:26;16.30;87.30
42663;DHT22;44330;51.360;6.686;2022-07-22T04:03:51;16.20;86.80
42663;DHT22;44330;51.360;6.686;2022-07-22T04:06:17;16.20;86.50
42663;DHT22;44330;51.360;6.686;2022-07-22T04:08:43;16.20;86.80
42663;DHT22;44330;51.360;6.686;2022-07-22T04:11:08;16.30;86.80
42663;DHT22;44330;51.360;6.686;2022-07-22T04:13:34;16.30;86.50
42663;DHT22;44330;51.360;6.686;2022-07-22T04:15:59;16.30;86.50
42663;DHT22;44330;51.360;6.686;2022-07-22T04:18:25;16.30;86.10
42663;DHT22;44330;51.360;6.686;2022-07-22T04:20:51;16.30;85.70
42663;DHT22;44330;51.360;6.686;2022-07-22T04:23:17;16.30;85.60
42663;DHT22;44330;51.360;6.686;2022-07-22T04:25:42;16.30;85.80
42663;DHT22;44330;51.360;6.686;2022-07-22T04:28:08;16.30;85.70
42663;DHT22;44330;51.360;6.686;2022-07-22T04:30:33;16.30;85.80
42663;DHT22;44330;51.360;6.686;2022-07-22T04:32:59;16.20;86.00
42663;DHT22;44330;51.360;6.686;2022-07-22T04:35:25;16.30;86.60
42663;DHT22;44330;51.360;6.686;2022-07-22T04:37:51;16.30;86.80
42663;DHT22;44330;51.360;6.686;2022-07-22T04:40:16;16.30;86.10
42663;DHT22;44330;51.360;6.686;2022-07-22T04:42:42;16.30;86.40
42663;DHT22;44330;51.360;6.686;2022-07-22T04:45:08;16.30;86.60
42663;DHT22;44330;51.360;6.686;2022-07-22T04:47:33;16.30;86.80
42663;DHT22;44330;51.360;6.686;2022-07-22T04:49:59;16.40;86.80
42663;DHT22;44330;51.360;6.686;2022-07-22T04:52:25;16.40;86.60
42663;DHT22;44330;51.360;6.686;2022-07-22T04:54:50;16.40;86.60
42663;DHT22;44330;51.360;6.686;2022-07-22T04:57:16;16.40;86.40
42663;DHT22;44330;51.360;6.686;2022-07-22T04:59:41;16.40;86.80
42663;DHT22;44330;51.360;6.686;2022-07-22T05:02:07;16.50;87.20
42663;DHT22;44330;51.360;6.686;2022-07-22T05:04:33;16.50;86.40
42663;DHT22;44330;51.360;6.686;2022-07-22T05:06:58;16.50;86.40
42663;DHT22;44330;51.360;6.686;2022-07-22T05:09:24;16.50;86.50
42663;DHT22;44330;51.360;6.686;2022-07-22T05:11:49;16.50;86.50
42663;DHT22;44330;51.360;6.686;2022-07-22T05:14:15;16.50;86.60
42663;DHT22;44330;51.360;6.686;2022-07-22T05:16:40;16.60;86.20
42663;DHT22;44330;51.360;6.686;2022-07-22T05:19:06;16.50;85.10
42663;DHT22;44330;51.360;6.686;2022-07-22T05:21:32;16.50;82.80
42663;DHT22;44330;51.360;6.686;2022-07-22T05:23:58;16.40;82.30
42663;DHT22;44330;51.360;6.686;2022-07-22T05:26:24;16.50;82.90
42663;DHT22;44330;51.360;6.686;2022-07-22T05:28:50;16.50;83.40
42663;DHT22;44330;51.360;6.686;2022-07-22T05:31:15;16.60;82.70
42663;DHT22;44330;51.360;6.686;2022-07-22T05:33:41;16.60;83.00
42663;DHT22;44330;51.360;6.686;2022-07-22T05:36:07;16.60;82.90
42663;DHT22;44330;51.360;6.686;2022-07-22T05:38:35;16.70;82.80
42663;DHT22;44330;51.360;6.686;2022-07-22T05:41:01;16.60;82.40
42663;DHT22;44330;51.360;6.686;2022-07-22T05:43:27;16.60;81.00
42663;DHT22;44330;51.360;6.686;2022-07-22T05:45:53;16.60;79.70
42663;DHT22;44330;51.360;6.686;2022-07-22T05:48:18;16.70;80.40
42663;DHT22;44330;51.360;6.686;2022-07-22T05:50:44;16.70;80.60
42663;DHT22;44330;51.360;6.686;2022-07-22T05:53:09;16.70;81.60
42663;DHT22;44330;51.360;6.686;2022-07-22T05:55:35;16.70;80.80
42663;DHT22;44330;51.360;6.686;2022-07-22T05:58:00;16.70;81.10
42663;DHT22;44330;51.360;6.686;2022-07-22T06:00:26;16.70;79.70
42663;DHT22;44330;51.360;6.686;2022-07-22T06:02:52;16.70;80.50
42663;DHT22;44330;51.360;6.686;2022-07-22T06:05:17;16.80;81.30
42663;DHT22;44330;51.360;6.686;2022-07-22T06:07:43;16.80;82.00
42663;DHT22;44330;51.360;6.686;2022-07-22T06:10:09;16.90;82.40
42663;DHT22;44330;51.360;6.686;2022-07-22T06:12:34;16.90;82.70
42663;DHT22;44330;51.360;6.686;2022-07-22T06:15:00;16.90;83.00
42663;DHT22;44330;51.360;6.686;2022-07-22T06:17:25;17.00;82.80
42663;DHT22;44330;51.360;6.686;2022-07-22T06:19:51;17.00;82.40
42663;DHT22;44330;51.360;6.686;2022-07-22T06:22:17;17.00;82.60
42663;DHT22;44330;51.360;6.686;2022-07-22T06:24:43;17.00;82.80
42663;DHT22;44330;51.360;6.686;2022-07-22T06:27:09;17.00;82.50
42663;DHT22;44330;51.360;6.686;2022-07-22T06:29:35;16.90;80.00
42663;DHT22;44330;51.360;6.686;2022-07-22T06:32:00;17.00;80.40
42663;DHT22;44330;51.360;6.686;2022-07-22T06:34:26;17.00;79.50
42663;DHT22;44330;51.360;6.686;2022-07-22T06:36:52;17.00;79.50
42663;DHT22;44330;51.360;6.686;2022-07-22T06:39:17;17.00;80.10
42663;DHT22;44330;51.360;6.686;2022-07-22T06:41:43;17.10;81.50
42663;DHT22;44330;51.360;6.686;2022-07-22T06:44:09;17.00;81.20
42663;DHT22;44330;51.360;6.686;2022-07-22T06:46:34;17.00;81.00
42663;DHT22;44330;51.360;6.686;2022-07-22T06:49:00;17.00;79.60
42663;DHT22;44330;51.360;6.686;2022-07-22T06:51:25;17.00;75.30
42663;DHT22;44330;51.360;6.686;2022-07-22T06:53:51;17.00;76.70
42663;DHT22;44330;51.360;6.686;2022-07-22T06:56:16;17.00;76.40
42663;DHT22;44330;51.360;6.686;2022-07-22T06:58:42;17.00;76.40
42663;DHT22;44330;51.360;6.686;2022-07-22T07:01:08;17.00;77.40
42663;DHT22;44330;51.360;6.686;2022-07-22T07:03:33;17.00;77.60
42663;DHT22;44330;51.360;6.686;2022-07-22T07:05:59;17.00;77.80
42663;DHT22;44330;51.360;6.686;2022-07-22T07:08:25;17.10;73.30
42663;DHT22;44330;51.360;6.686;2022-07-22T07:10:51;17.10;71.20
42663;DHT22;44330;51.360;6.686;2022-07-22T07:13:16;17.00;71.70
42663;DHT22;44330;51.360;6.686;2022-07-22T07:15:42;17.00;70.60
42663;DHT22;44330;51.360;6.686;2022-07-22T07:18:08;17.00;68.20
42663;DHT22;44330;51.360;6.686;2022-07-22T07:20:33;17.00;69.50
42663;DHT22;44330;51.360;6.686;2022-07-22T07:23:02;17.00;70.90
42663;DHT22;44330;51.360;6.686;2022-07-22T07:25:28;17.00;69.90
42663;DHT22;44330;51.360;6.686;2022-07-22T07:27:54;17.00;70.20
42663;DHT22;44330;51.360;6.686;2022-07-22T07:30:19;17.00;70.50
42663;DHT22;44330;51.360;6.686;2022-07-22T07:32:45;17.10;70.00
42663;DHT22;44330;51.360;6.686;2022-07-22T07:35:11;17.00;67.80
42663;DHT22;44330;51.360;6.686;2022-07-22T07:37:36;17.10;69.10
42663;DHT22;44330;51.360;6.686;2022-07-22T07:40:03;17.10;71.00
42663;DHT22;44330;51.360;6.686;2022-07-22T07:42:29;17.20;68.80
42663;DHT22;44330;51.360;6.686;2022-07-22T07:44:54;17.10;65.10
42663;DHT22;44330;51.360;6.686;2022-07-22T07:47:21;17.20;65.10
42663;DHT22;44330;51.360;6.686;2022-07-22T07:49:48;17.20;67.10
42663;DHT22;44330;51.360;6.686;2022-07-22T07:52:15;17.10;67.90
42663;DHT22;44330;51.360;6.686;2022-07-22T07:54:41;17.20;70.50
42663;DHT22;44330;51.360;6.686;2022-07-22T07:57:08;17.20;66.00
42663;DHT22;44330;51.360;6.686;2022-07-22T07:59:36;17.30;60.00
42663;DHT22;44330;51.360;6.686;2022-07-22T08:02:01;17.30;58.90
42663;DHT22;44330;51.360;6.686;2022-07-22T08:04:28;17.20;59.70
42663;DHT22;44330;51.360;6.686;2022-07-22T08:06:54;17.30;60.60
42663;DHT22;44330;51.360;6.686;2022-07-22T08:09:20;17.30;59.90
42663;DHT22;44330;51.360;6.686;2022-07-22T08:11:45;17.40;58.20
42663;DHT22;44330;51.360;6.686;2022-07-22T08:14:11;17.40;57.10
42663;DHT22;44330;51.360;6.686;2022-07-22T08:16:37;17.30;56.20
42663;DHT22;44330;51.360;6.686;2022-07-22T08:19:03;17.40;59.20
42663;DHT22;44330;51.360;6.686;2022-07-22T08:21:28;17.40;62.80
42663;DHT22;44330;51.360;6.686;2022-07-22T08:23:54;17.50;63.60
42663;DHT22;44330;51.360;6.686;2022-07-22T08:26:20;17.50;53.80
42663;DHT22;44330;51.360;6.686;2022-07-22T08:28:46;17.50;53.70
42663;DHT22;44330;51.360;6.686;2022-07-22T08:31:11;17.60;56.00
42663;DHT22;44330;51.360;6.686;2022-07-22T08:33:37;17.50;54.10
42663;DHT22;44330;51.360;6.686;2022-07-22T08:36:03;17.60;55.20
42663;DHT22;44330;51.360;6.686;2022-07-22T08:38:29;17.60;56.40
42663;DHT22;44330;51.360;6.686;2022-07-22T08:40:56;17.70;53.60
42663;DHT22;44330;51.360;6.686;2022-07-22T08:43:23;17.70;49.70
42663;DHT22;44330;51.360;6.686;2022-07-22T08:45:49;17.70;48.00
42663;DHT22;44330;51.360;6.686;2022-07-22T08:48:14;17.80;46.30
42663;DHT22;44330;51.360;6.686;2022-07-22T08:50:41;17.90;42.00
42663;DHT22;44330;51.360;6.686;2022-07-22T08:53:11;18.00;41.40
42663;DHT22;44330;51.360;6.686;2022-07-22T08:55:55;18.00;43.50
42663;DHT22;44330;51.360;6.686;2022-07-22T08:58:20;18.20;46.20
42663;DHT22;44330;51.360;6.686;2022-07-22T09:00:46;18.30;42.00
42663;DHT22;44330;51.360;6.686;2022-07-22T09:03:22;18.20;26.70
42663;DHT22;44330;51.360;6.686;2022-07-22T09:05:51;18.20;29.90
42663;DHT22;44330;51.360;6.686;2022-07-22T09:08:17;18.40;42.40
42663;DHT22;44330;51.360;6.686;2022-07-22T09:10:43;18.50;30.80
42663;DHT22;44330;51.360;6.686;2022-07-22T09:13:10;18.60;38.60
42663;DHT22;44330;51.360;6.686;2022-07-22T09:15:39;18.80;33.10
42663;DHT22;44330;51.360;6.686;2022-07-22T09:18:07;18.90;26.50
42663;DHT22;44330;51.360;6.686;2022-07-22T09:20:34;19.00;22.50
42663;DHT22;44330;51.360;6.686;2022-07-22T09:23:01;19.00;23.50
42663;DHT22;44330;51.360;6.686;2022-07-22T09:25:32;19.10;16.30
42663;DHT22;44330;51.360;6.686;2022-07-22T09:30:38;19.50;17.70
42663;DHT22;44330;51.360;6.686;2022-07-22T09:33:04;19.30;15.60
42663;DHT22;44330;51.360;6.686;2022-07-22T09:35:31;19.20;17.70
42663;DHT22;44330;51.360;6.686;2022-07-22T09:38:09;19.50;29.50
42663;DHT22;44330;51.360;6.686;2022-07-22T09:40:40;19.40;9.70
42663;DHT22;44330;51.360;6.686;2022-07-22T09:43:26;19.30;14.20
42663;DHT22;44330;51.360;6.686;2022-07-22T09:45:58;19.40;11.30
42663;DHT22;44330;51.360;6.686;2022-07-22T09:48:25;19.40;6.10
42663;DHT22;44330;51.360;6.686;2022-07-22T09:50:54;19.50;5.10
42663;DHT22;44330;51.360;6.686;2022-07-22T09:53:24;19.80;20.50
42663;DHT22;44330;51.360;6.686;2022-07-22T09:55:50;20.10;1.00
42663;DHT22;44330;51.360;6.686;2022-07-22T09:58:16;20.20;1.00
42663;DHT22;44330;51.360;6.686;2022-07-22T10:00:45;20.30;1.00
42663;DHT22;44330;51.360;6.686;2022-07-22T10:03:13;20.60;1.00
42663;DHT22;44330;51.360;6.686;2022-07-22T10:05:43;20.60;1.00
42663;DHT22;44330;51.360;6.686;2022-07-22T10:08:09;20.80;5.80
42663;DHT22;44330;51.360;6.686;2022-07-22T10:10:36;20.90;1.00
42663;DHT22;44330;51.360;6.686;2022-07-22T10:13:05;20.80;1.00
42663;DHT22;44330;51.360;6.686;2022-07-22T10:15:32;20.70;1.00
42663;DHT22;44330;51.360;6.686;2022-07-22T10:17:59;20.90;1.00
42663;DHT22;44330;51.360;6.686;2022-07-22T10:20:28;21.10;1.00
42663;DHT22;44330;51.360;6.686;2022-07-22T10:23:05;21.40;1.00
42663;DHT22;44330;51.360;6.686;2022-07-22T10:25:47;21.20;1.00
42663;DHT22;44330;51.360;6.686;2022-07-22T10:28:40;21.00;1.00
42663;DHT22;44330;51.360;6.686;2022-07-22T10:31:23;20.80;99.90
42663;DHT22;44330;51.360;6.686;2022-07-22T10:33:54;20.50;1.00
42663;DHT22;44330;51.360;6.686;2022-07-22T10:36:36;20.40;1.00
42663;DHT22;44330;51.360;6.686;2022-07-22T10:39:10;20.20;1.00
42663;DHT22;44330;51.360;6.686;2022-07-22T10:41:40;19.90;1.00
42663;DHT22;44330;51.360;6.686;2022-07-22T10:44:07;19.80;1.00
42663;DHT22;44330;51.360;6.686;2022-07-22T10:49:18;20.20;1.00
42663;DHT22;44330;51.360;6.686;2022-07-22T10:54:32;20.70;99.90
42663;DHT22;44330;51.360;6.686;2022-07-22T10:57:00;20.70;1.00
42663;DHT22;44330;51.360;6.686;2022-07-22T10:59:26;20.90;1.00
42663;DHT22;44330;51.360;6.686;2022-07-22T11:01:52;21.10;99.90
42663;DHT22;44330;51.360;6.686;2022-07-22T11:04:26;21.30;99.90
42663;DHT22;44330;51.360;6.686;2022-07-22T11:06:54;21.30;99.90
42663;DHT22;44330;51.360;6.686;2022-07-22T11:09:31;21.60;99.90
42663;DHT22;44330;51.360;6.686;2022-07-22T11:11:57;22.10;99.90
42663;DHT22;44330;51.360;6.686;2022-07-22T11:14:33;22.30;99.90
42663;DHT22;44330;51.360;6.686;2022-07-22T11:17:07;22.30;1.00
42663;DHT22;44330;51.360;6.686;2022-07-22T11:19:34;22.40;8.30
42663;DHT22;44330;51.360;6.686;2022-07-22T11:22:08;23.00;99.90
42663;DHT22;44330;51.360;6.686;2022-07-22T11:24:35;23.70;60.50
42663;DHT22;44330;51.360;6.686;2022-07-22T11:27:03;24.10;99.90
42663;DHT22;44330;51.360;6.686;2022-07-22T11:29:34;24.00;99.90
42663;DHT22;44330;51.360;6.686;2022-07-22T11:32:01;24.00;1.00
42663;DHT22;44330;51.360;6.686;2022-07-22T11:34:28;24.10;99.90
42663;DHT22;44330;51.360;6.686;2022-07-22T11:36:54;24.40;1.00
42663;DHT22;44330;51.360;6.686;2022-07-22T11:39:22;25.00;99.90
42663;DHT22;44330;51.360;6.686;2022-07-22T11:41:49;25.40;99.90
42663;DHT22;44330;51.360;6.686;2022-07-22T11:44:20;25.70;94.50
42663;DHT22;44330;51.360;6.686;2022-07-22T11:46:55;25.90;99.90
42663;DHT22;44330;51.360;6.686;2022-07-22T11:49:25;26.10;1.00
42663;DHT22;44330;51.360;6.686;2022-07-22T11:51:51;26.30;99.90
42663;DHT22;44330;51.360;6.686;2022-07-22T11:54:18;25.40;99.90
42663;DHT22;44330;51.360;6.686;2022-07-22T11:56:43;25.10;63.90
42663;DHT22;44330;51.360;6.686;2022-07-22T11:59:13;24.90;99.90
42663;DHT22;44330;51.360;6.686;2022-07-22T12:01:39;24.10;99.90
42663;DHT22;44330;51.360;6.686;2022-07-22T12:04:21;23.20;64.00
42663;DHT22;44330;51.360;6.686;2022-07-22T12:06:47;22.70;26.20
42663;DHT22;44330;51.360;6.686;2022-07-22T12:09:13;22.90;88.30
42663;DHT22;44330;51.360;6.686;2022-07-22T12:11:42;23.40;99.90
42663;DHT22;44330;51.360;6.686;2022-07-22T12:14:10;23.60;83.40
42663;DHT22;44330;51.360;6.686;2022-07-22T12:16:37;23.90;99.90
42663;DHT22;44330;51.360;6.686;2022-07-22T12:19:05;23.70;99.90
42663;DHT22;44330;51.360;6.686;2022-07-22T12:24:16;23.80;99.90
42663;DHT22;44330;51.360;6.686;2022-07-22T12:26:49;23.70;99.90
42663;DHT22;44330;51.360;6.686;2022-07-22T12:29:20;23.60;99.90
42663;DHT22;44330;51.360;6.686;2022-07-22T12:31:51;23.90;99.90
42663;DHT22;44330;51.360;6.686;2022-07-22T12:34:45;24.30;99.90
42663;DHT22;44330;51.360;6.686;2022-07-22T12:42:43;24.80;97.20
42663;DHT22;44330;51.360;6.686;2022-07-22T12:45:14;24.50;68.90
42663;DHT22;44330;51.360;6.686;2022-07-22T12:52:48;24.00;61.30
42663;DHT22;44330;51.360;6.686;2022-07-22T12:55:13;24.70;99.90
42663;DHT22;44330;51.360;6.686;2022-07-22T12:57:39;24.90;30.60
42663;DHT22;44330;51.360;6.686;2022-07-22T13:00:05;25.20;6.90
42663;DHT22;44330;51.360;6.686;2022-07-22T13:02:31;25.70;98.00
42663;DHT22;44330;51.360;6.686;2022-07-22T13:04:56;26.00;1.00
42663;DHT22;44330;51.360;6.686;2022-07-22T13:07:22;25.20;1.00
42663;DHT22;44330;51.360;6.686;2022-07-22T13:09:47;25.20;1.00
42663;DHT22;44330;51.360;6.686;2022-07-22T13:12:13;24.90;1.00
42663;DHT22;44330;51.360;6.686;2022-07-22T13:14:38;25.00;99.90
42663;DHT22;44330;51.360;6.686;2022-07-22T13:17:04;25.30;1.00
42663;DHT22;44330;51.360;6.686;2022-07-22T13:19:29;25.90;99.90
42663;DHT22;44330;51.360;6.686;2022-07-22T13:21:55;26.00;99.90
42663;DHT22;44330;51.360;6.686;2022-07-22T13:24:21;26.50;99.90
42663;DHT22;44330;51.360;6.686;2022-07-22T13:26:46;26.50;99.90
42663;DHT22;44330;51.360;6.686;2022-07-22T13:29:12;26.60;99.90
42663;DHT22;44330;51.360;6.686;2022-07-22T13:31:37;26.70;99.90
42663;DHT22;44330;51.360;6.686;2022-07-22T13:34:03;26.30;99.90
42663;DHT22;44330;51.360;6.686;2022-07-22T13:36:28;25.50;99.90
42663;DHT22;44330;51.360;6.686;2022-07-22T13:38:57;25.40;99.90
42663;DHT22;44330;51.360;6.686;2022-07-22T13:41:23;25.80;99.90
42663;DHT22;44330;51.360;6.686;2022-07-22T13:43:49;25.90;99.90
42663;DHT22;44330;51.360;6.686;2022-07-22T13:46:16;25.60;99.90
42663;DHT22;44330;51.360;6.686;2022-07-22T13:48:42;25.70;99.90
42663;DHT22;44330;51.360;6.686;2022-07-22T13:51:08;25.80;99.90
42663;DHT22;44330;51.360;6.686;2022-07-22T13:53:37;25.80;99.90
42663;DHT22;44330;51.360;6.686;2022-07-22T13:56:03;25.20;99.90
42663;DHT22;44330;51.360;6.686;2022-07-22T13:58:29;24.70;99.90
42663;DHT22;44330;51.360;6.686;2022-07-22T14:00:56;24.90;99.90
42663;DHT22;44330;51.360;6.686;2022-07-22T14:03:21;25.00;99.90
42663;DHT22;44330;51.360;6.686;2022-07-22T14:05:47;25.50;99.90
42663;DHT22;44330;51.360;6.686;2022-07-22T14:08:12;26.00;99.90
42663;DHT22;44330;51.360;6.686;2022-07-22T14:10:38;25.90;99.90
42663;DHT22;44330;51.360;6.686;2022-07-22T14:13:03;26.10;99.90
42663;DHT22;44330;51.360;6.686;2022-07-22T14:15:32;25.90;99.90
42663;DHT22;44330;51.360;6.686;2022-07-22T14:17:57;26.20;99.90
42663;DHT22;44330;51.360;6.686;2022-07-22T14:20:23;25.90;99.90
42663;DHT22;44330;51.360;6.686;2022-07-22T14:22:48;25.90;99.90
42663;DHT22;44330;51.360;6.686;2022-07-22T14:25:14;25.90;99.90
42663;DHT22;44330;51.360;6.686;2022-07-22T14:27:39;25.90;99.90
42663;DHT22;44330;51.360;6.686;2022-07-22T14:30:05;25.70;99.90
42663;DHT22;44330;51.360;6.686;2022-07-22T14:32:31;25.90;99.90
42663;DHT22;44330;51.360;6.686;2022-07-22T14:34:57;26.20;99.90
42663;DHT22;44330;51.360;6.686;2022-07-22T14:37:22;26.00;99.90
42663;DHT22;44330;51.360;6.686;2022-07-22T14:39:49;25.90;99.90
42663;DHT22;44330;51.360;6.686;2022-07-22T14:42:14;25.10;99.90
42663;DHT22;44330;51.360;6.686;2022-07-22T14:44:40;25.40;99.90
42663;DHT22;44330;51.360;6.686;2022-07-22T14:47:05;25.70;99.90
42663;DHT22;44330;51.360;6.686;2022-07-22T14:49:31;25.60;99.90
42663;DHT22;44330;51.360;6.686;2022-07-22T14:51:56;25.10;99.90
42663;DHT22;44330;51.360;6.686;2022-07-22T14:54:22;25.10;99.90
42663;DHT22;44330;51.360;6.686;2022-07-22T14:56:47;25.50;99.90
42663;DHT22;44330;51.360;6.686;2022-07-22T14:59:13;25.90;99.90
42663;DHT22;44330;51.360;6.686;2022-07-22T15:01:38;26.20;99.90
42663;DHT22;44330;51.360;6.686;2022-07-22T15:04:04;26.50;99.90
42663;DHT22;44330;51.360;6.686;2022-07-22T15:06:30;26.60;99.90
42663;DHT22;44330;51.360;6.686;2022-07-22T15:08:55;26.80;99.90
42663;DHT22;44330;51.360;6.686;2022-07-22T15:11:21;27.20;99.90
42663;DHT22;44330;51.360;6.686;2022-07-22T15:13:46;27.40;99.90
42663;DHT22;44330;51.360;6.686;2022-07-22T15:16:12;27.60;99.90
42663;DHT22;44330;51.360;6.686;2022-07-22T15:18:38;27.40;99.90
42663;DHT22;44330;51.360;6.686;2022-07-22T15:21:04;27.40;99.90
42663;DHT22;44330;51.360;6.686;2022-07-22T15:23:29;26.80;99.90
42663;DHT22;44330;51.360;6.686;2022-07-22T15:25:57;26.10;99.90
42663;DHT22;44330;51.360;6.686;2022-07-22T15:28:23;25.10;99.90
42663;DHT22;44330;51.360;6.686;2022-07-22T15:30:49;24.60;99.90
42663;DHT22;44330;51.360;6.686;2022-07-22T15:33:14;24.50;99.90
42663;DHT22;44330;51.360;6.686;2022-07-22T15:35:40;24.90;99.90
42663;DHT22;44330;51.360;6.686;2022-07-22T15:38:06;25.00;99.90
42663;DHT22;44330;51.360;6.686;2022-07-22T15:40:31;24.70;99.90
42663;DHT22;44330;51.360;6.686;2022-07-22T15:42:57;25.00;99.90
42663;DHT22;44330;51.360;6.686;2022-07-22T15:45:22;25.10;99.90
42663;DHT22;44330;51.360;6.686;2022-07-22T15:47:49;24.70;99.90
42663;DHT22;44330;51.360;6.686;2022-07-22T15:50:15;24.60;99.90